createdAt,value
2023-05-20T00:00:30.206Z,12.50
2023-05-20T00:03:02.763Z,12.60
2023-05-20T00:05:35.249Z,12.60
2023-05-20T00:08:28.538Z,12.50
2023-05-20T00:11:05.649Z,12.60
2023-05-20T00:13:37.267Z,12.60
2023-05-20T00:16:07.342Z,12.60
2023-05-20T00:18:39.582Z,12.50
2023-05-20T00:21:14.233Z,12.50
2023-05-20T00:23:44.449Z,12.60
2023-05-20T00:26:17.633Z,12.60
2023-05-20T00:28:49.266Z,12.60
2023-05-20T00:31:18.025Z,12.60
2023-05-20T00:33:52.523Z,12.60
2023-05-20T00:36:21.441Z,12.60
2023-05-20T00:38:52.833Z,12.50
2023-05-20T00:41:23.560Z,12.50
2023-05-20T00:43:54.859Z,12.50
2023-05-20T00:46:27.669Z,12.60
2023-05-20T00:48:56.061Z,12.50
2023-05-20T00:51:24.315Z,12.60
2023-05-20T00:53:52.481Z,12.50
2023-05-20T00:56:21.730Z,12.50
2023-05-20T00:58:52.026Z,12.60
2023-05-20T01:01:20.151Z,12.50
2023-05-20T01:03:49.950Z,12.60
2023-05-20T01:06:18.005Z,12.50
2023-05-20T01:08:46.108Z,12.60
2023-05-20T01:11:20.161Z,12.50
2023-05-20T01:13:53.876Z,12.40
2023-05-20T01:16:26.165Z,12.40
2023-05-20T01:18:58.748Z,12.50
2023-05-20T01:21:31.730Z,12.40
2023-05-20T01:24:04.139Z,12.50
2023-05-20T01:26:33.614Z,12.50
2023-05-20T01:29:04.972Z,12.50
2023-05-20T01:31:41.205Z,12.40
2023-05-20T01:34:09.818Z,12.40
2023-05-20T01:36:38.748Z,12.30
2023-05-20T01:39:14.044Z,12.40
2023-05-20T01:41:44.608Z,12.50
2023-05-20T01:44:13.095Z,12.30
2023-05-20T01:46:41.305Z,12.40
2023-05-20T01:49:10.679Z,12.40
2023-05-20T01:51:38.949Z,12.50
2023-05-20T01:54:07.097Z,12.50
2023-05-20T01:56:38.554Z,12.40
2023-05-20T01:59:07.762Z,12.40
2023-05-20T02:01:35.872Z,12.30
2023-05-20T02:04:06.786Z,12.30
2023-05-20T02:06:35.021Z,12.40
2023-05-20T02:09:05.332Z,12.40
2023-05-20T02:11:33.436Z,12.40
2023-05-20T02:14:03.049Z,12.40
2023-05-20T02:16:32.376Z,12.30
2023-05-20T02:19:04.480Z,12.30
2023-05-20T02:21:32.692Z,12.30
2023-05-20T02:24:03.048Z,12.30
2023-05-20T02:26:34.251Z,12.30
2023-05-20T02:29:07.910Z,12.30
2023-05-20T02:31:36.707Z,12.20
2023-05-20T02:34:05.991Z,12.30
2023-05-20T02:36:35.628Z,12.20
2023-05-20T02:39:11.032Z,12.20
2023-05-20T02:41:48.690Z,12.30
2023-05-20T02:44:18.148Z,12.30
2023-05-20T02:46:46.355Z,12.20
2023-05-20T02:49:18.148Z,12.20
2023-05-20T02:51:46.274Z,12.30
2023-05-20T02:54:16.016Z,12.20
2023-05-20T02:56:44.109Z,12.10
2023-05-20T02:59:12.419Z,12.20
2023-05-20T03:01:46.911Z,12.20
2023-05-20T03:07:20.092Z,12.10
2023-05-20T03:09:48.910Z,12.10
2023-05-20T03:12:18.384Z,12.10
2023-05-20T03:14:48.641Z,12.10
2023-05-20T03:17:21.324Z,12.20
2023-05-20T03:19:52.072Z,12.20
2023-05-20T03:22:21.685Z,12.20
2023-05-20T03:24:55.365Z,12.10
2023-05-20T03:27:26.642Z,12.20
2023-05-20T03:29:58.114Z,12.10
2023-05-20T03:32:28.883Z,12.10
2023-05-20T03:34:58.228Z,12.10
2023-05-20T03:37:26.345Z,12.10
2023-05-20T03:39:54.957Z,12.10
2023-05-20T03:42:26.941Z,12.20
2023-05-20T03:44:56.309Z,12.20
2023-05-20T03:47:24.453Z,12.10
2023-05-20T03:49:53.972Z,12.00
2023-05-20T03:52:24.875Z,12.00
2023-05-20T03:54:55.087Z,12.00
2023-05-20T03:57:27.100Z,12.00
2023-05-20T03:59:55.420Z,12.00
2023-05-20T04:02:25.013Z,11.90
2023-05-20T04:04:57.864Z,12.00
2023-05-20T04:07:28.326Z,12.00
2023-05-20T04:09:59.991Z,11.90
2023-05-20T04:12:35.036Z,11.90
2023-05-20T04:15:06.141Z,11.90
2023-05-20T04:17:42.110Z,12.00
2023-05-20T04:20:13.992Z,12.00
2023-05-20T04:22:42.079Z,12.10
2023-05-20T04:25:10.625Z,12.10
2023-05-20T04:27:44.716Z,12.10
2023-05-20T04:30:16.933Z,11.90
2023-05-20T04:32:46.368Z,11.90
2023-05-20T04:35:17.264Z,11.90
2023-05-20T04:37:48.510Z,11.90
2023-05-20T04:40:17.262Z,11.90
2023-05-20T04:42:46.442Z,11.80
2023-05-20T04:45:14.844Z,11.90
2023-05-20T04:47:44.478Z,11.90
2023-05-20T04:50:13.516Z,11.90
2023-05-20T04:52:46.030Z,11.90
2023-05-20T04:55:16.069Z,11.90
2023-05-20T04:57:45.574Z,11.80
2023-05-20T05:00:15.623Z,11.90
2023-05-20T05:02:45.278Z,11.90
2023-05-20T05:05:13.612Z,11.90
2023-05-20T05:07:52.324Z,11.90
2023-05-20T05:10:21.981Z,11.90
2023-05-20T05:12:50.252Z,11.90
2023-05-20T05:15:18.842Z,11.90
2023-05-20T05:17:48.133Z,11.90
2023-05-20T05:20:16.478Z,11.80
2023-05-20T05:22:47.967Z,11.80
2023-05-20T05:25:18.726Z,11.80
2023-05-20T05:27:57.299Z,12.00
2023-05-20T05:30:25.571Z,12.10
2023-05-20T05:32:55.063Z,12.20
2023-05-20T05:35:25.310Z,12.20
2023-05-20T05:37:56.177Z,12.20
2023-05-20T05:40:26.368Z,12.20
2023-05-20T05:42:55.589Z,12.10
2023-05-20T05:45:25.755Z,12.10
2023-05-20T05:47:55.901Z,12.20
2023-05-20T05:50:25.508Z,12.20
2023-05-20T05:52:56.180Z,12.30
2023-05-20T05:55:27.460Z,12.20
2023-05-20T05:57:59.031Z,12.30
2023-05-20T06:00:30.923Z,12.40
2023-05-20T06:03:00.815Z,12.50
2023-05-20T06:05:29.773Z,12.50
2023-05-20T06:08:07.205Z,12.60
2023-05-20T06:10:35.380Z,12.60
2023-05-20T06:13:06.963Z,12.70
2023-05-20T06:19:23.621Z,12.80
2023-05-20T06:21:59.315Z,12.90
2023-05-20T06:24:28.962Z,12.90
2023-05-20T06:26:59.396Z,13.00
2023-05-20T06:29:27.928Z,13.10
2023-05-20T06:31:57.322Z,13.10
2023-05-20T06:34:27.785Z,13.20
2023-05-20T06:36:57.653Z,13.30
2023-05-20T06:39:31.689Z,13.40
2023-05-20T06:45:24.799Z,13.30
2023-05-20T06:48:06.892Z,13.40
2023-05-20T06:51:13.536Z,13.60
2023-05-20T06:53:46.679Z,13.70
2023-05-20T06:56:18.391Z,13.70
2023-05-20T06:58:46.660Z,14.00
2023-05-20T07:01:17.247Z,15.00
2023-05-20T07:03:50.772Z,15.90
2023-05-20T07:06:25.232Z,16.10
2023-05-20T07:12:56.310Z,18.60
2023-05-20T07:15:25.429Z,19.40
2023-05-20T07:17:55.463Z,20.10
2023-05-20T07:20:28.258Z,20.30
2023-05-20T07:23:01.334Z,19.80
2023-05-20T07:25:35.531Z,21.00
2023-05-20T07:28:07.241Z,20.50
2023-05-20T07:30:38.960Z,19.40
2023-05-20T07:33:29.826Z,17.60
2023-05-20T07:35:57.884Z,16.20
2023-05-20T07:38:26.098Z,15.70
2023-05-20T07:40:55.845Z,15.70
2023-05-20T07:43:25.523Z,15.70
2023-05-20T07:45:58.463Z,15.90
2023-05-20T07:54:51.819Z,15.00
2023-05-20T07:57:19.936Z,15.00
2023-05-20T07:59:49.431Z,15.30
2023-05-20T08:02:21.912Z,15.40
2023-05-20T08:04:51.926Z,15.70
2023-05-20T08:07:28.376Z,16.60
2023-05-20T08:09:58.983Z,16.10
2023-05-20T08:12:27.149Z,15.80
2023-05-20T08:15:02.898Z,15.30
2023-05-20T08:17:43.387Z,15.30
2023-05-20T08:20:17.136Z,15.20
2023-05-20T08:22:54.548Z,15.20
2023-05-20T08:25:35.990Z,15.30
2023-05-20T08:28:14.013Z,15.60
2023-05-20T08:30:43.725Z,15.50
2023-05-20T08:33:16.499Z,15.20
2023-05-20T08:36:03.284Z,15.50
2023-05-20T08:38:32.675Z,15.50
2023-05-20T08:41:03.828Z,15.90
2023-05-20T08:43:35.717Z,15.80
2023-05-20T08:46:06.988Z,16.30
2023-05-20T08:48:38.484Z,15.80
2023-05-20T08:51:11.872Z,15.40
2023-05-20T08:53:43.398Z,14.80
2023-05-20T08:56:14.198Z,14.80
2023-05-20T08:58:43.154Z,14.80
2023-05-20T09:01:45.408Z,14.90
2023-05-20T09:07:37.989Z,14.50
2023-05-20T09:10:08.822Z,14.60
2023-05-20T09:12:52.494Z,14.70
2023-05-20T09:15:21.604Z,14.70
2023-05-20T09:17:52.582Z,14.10
2023-05-20T09:20:24.206Z,14.30
2023-05-20T09:23:06.418Z,14.50
2023-05-20T09:26:06.340Z,14.30
2023-05-20T09:28:45.944Z,14.40
2023-05-20T09:31:19.723Z,14.60
2023-05-20T09:33:52.810Z,14.50
2023-05-20T09:36:24.918Z,14.50
2023-05-20T09:42:57.888Z,14.40
2023-05-20T09:45:29.612Z,14.50
2023-05-20T09:47:59.775Z,14.60
2023-05-20T09:50:36.887Z,14.40
2023-05-20T09:53:27.778Z,14.30
2023-05-20T09:55:57.472Z,14.30
2023-05-20T09:58:27.805Z,14.30
2023-05-20T10:00:57.504Z,14.20
2023-05-20T10:06:52.344Z,14.10
2023-05-20T10:09:32.774Z,14.20
2023-05-20T10:12:11.694Z,14.40
2023-05-20T10:14:55.962Z,14.60
2023-05-20T10:17:33.640Z,14.30
2023-05-20T10:23:02.100Z,14.20
2023-05-20T10:25:40.763Z,14.30
2023-05-20T10:29:11.506Z,14.40
2023-05-20T10:31:51.524Z,14.80
2023-05-20T10:34:21.133Z,15.00
2023-05-20T10:36:59.650Z,15.10
2023-05-20T10:39:29.066Z,15.20
2023-05-20T10:42:09.467Z,15.10
2023-05-20T10:44:44.371Z,15.30
2023-05-20T10:49:47.428Z,15.40
2023-05-20T10:52:19.405Z,15.40
2023-05-20T10:54:55.892Z,15.50
2023-05-20T10:57:26.265Z,15.60
2023-05-20T10:59:58.347Z,15.80
2023-05-20T11:02:33.970Z,15.80
2023-05-20T11:05:04.082Z,15.60
2023-05-20T11:07:34.208Z,16.00
2023-05-20T11:10:13.701Z,15.80
2023-05-20T11:12:44.955Z,16.20
2023-05-20T11:15:24.561Z,16.00
2023-05-20T11:17:57.684Z,15.90
2023-05-20T11:20:28.851Z,16.30
2023-05-20T11:22:58.945Z,16.30
2023-05-20T11:25:28.973Z,16.70
2023-05-20T11:28:00.994Z,16.60
2023-05-20T11:30:31.146Z,16.70
2023-05-20T11:36:04.891Z,17.00
2023-05-20T11:38:39.029Z,17.20
2023-05-20T11:41:07.335Z,17.60
2023-05-20T11:43:47.168Z,17.60
2023-05-20T11:46:15.753Z,18.00
2023-05-20T11:48:59.157Z,17.60
2023-05-20T11:51:32.548Z,17.40
2023-05-20T11:54:02.390Z,18.30
2023-05-20T11:56:31.371Z,17.90
2023-05-20T12:00:14.267Z,18.00
2023-05-20T12:03:08.029Z,18.30
2023-05-20T12:05:38.857Z,18.10
2023-05-20T12:08:42.392Z,18.00
2023-05-20T12:11:14.662Z,18.10
2023-05-20T12:13:44.246Z,17.90
2023-05-20T12:16:15.481Z,17.90
2023-05-20T12:18:45.705Z,18.20
2023-05-20T12:21:13.991Z,18.40
2023-05-20T12:23:47.478Z,18.20
2023-05-20T12:26:16.041Z,18.10
2023-05-20T12:29:18.556Z,17.90
2023-05-20T12:31:46.693Z,18.40
2023-05-20T12:34:16.090Z,18.80
2023-05-20T12:37:19.858Z,18.50
2023-05-20T12:43:56.881Z,18.20
2023-05-20T12:46:37.171Z,18.20
2023-05-20T12:49:14.302Z,18.60
2023-05-20T12:51:43.588Z,18.30
2023-05-20T12:54:37.823Z,18.20
2023-05-20T12:57:10.867Z,18.70
2023-05-20T12:59:41.690Z,18.20
2023-05-20T13:02:14.174Z,18.20
2023-05-20T13:04:52.321Z,18.30
2023-05-20T13:07:22.053Z,18.60
2023-05-20T13:09:53.149Z,18.20
2023-05-20T13:12:22.607Z,18.20
2023-05-20T13:15:02.504Z,18.20
2023-05-20T13:17:33.540Z,18.00
2023-05-20T13:23:55.245Z,18.10
2023-05-20T13:26:23.602Z,18.00
2023-05-20T13:28:51.829Z,18.00
2023-05-20T13:31:21.548Z,18.10
2023-05-20T13:33:49.701Z,18.20
2023-05-20T13:36:19.539Z,18.40
2023-05-20T13:38:48.188Z,18.70
2023-05-20T13:41:18.454Z,18.40
2023-05-20T13:44:16.534Z,18.40
2023-05-20T13:46:47.771Z,18.50
2023-05-20T13:49:20.831Z,18.30
2023-05-20T13:51:48.935Z,18.30
2023-05-20T13:54:18.627Z,18.20
2023-05-20T13:57:24.092Z,18.20
2023-05-20T14:00:07.808Z,17.90
2023-05-20T14:02:56.855Z,17.90
2023-05-20T14:05:33.368Z,18.50
2023-05-20T14:08:10.099Z,18.60
2023-05-20T14:10:39.573Z,19.10
2023-05-20T14:13:19.480Z,19.40
2023-05-20T14:15:49.332Z,19.20
2023-05-20T14:18:24.534Z,19.20
2023-05-20T14:20:54.034Z,19.20
2023-05-20T14:23:31.803Z,18.70
2023-05-20T14:26:03.330Z,18.70
2023-05-20T14:28:35.882Z,18.00
2023-05-20T14:31:19.308Z,18.20
2023-05-20T14:34:24.016Z,18.30
2023-05-20T14:37:13.377Z,18.50
2023-05-20T14:39:59.868Z,18.50
2023-05-20T14:42:59.338Z,18.00
2023-05-20T14:45:45.788Z,18.10
2023-05-20T14:48:19.459Z,18.30
2023-05-20T14:50:52.139Z,18.50
2023-05-20T14:53:23.387Z,18.60
2023-05-20T14:55:56.949Z,18.40
2023-05-20T14:59:03.194Z,18.60
2023-05-20T15:01:33.213Z,18.10
2023-05-20T15:04:05.194Z,18.60
2023-05-20T15:06:59.789Z,18.60
2023-05-20T15:09:44.639Z,18.50
2023-05-20T15:12:22.508Z,18.90
2023-05-20T15:15:14.183Z,18.80
2023-05-20T15:17:48.218Z,18.90
2023-05-20T15:20:29.339Z,18.30
2023-05-20T15:23:17.686Z,18.70
2023-05-20T15:26:03.371Z,18.50
2023-05-20T15:28:42.668Z,18.20
2023-05-20T15:31:19.828Z,18.30
2023-05-20T15:33:50.702Z,17.90
2023-05-20T15:36:46.792Z,18.60
2023-05-20T15:39:33.027Z,18.60
2023-05-20T15:42:17.326Z,18.80
2023-05-20T15:45:05.130Z,18.30
2023-05-20T15:47:40.450Z,18.50
2023-05-20T15:50:16.349Z,18.10
2023-05-20T15:52:56.067Z,18.30
2023-05-20T15:55:27.399Z,18.50
2023-05-20T15:57:55.773Z,18.40
2023-05-20T16:00:26.643Z,18.40
2023-05-20T16:02:57.229Z,18.30
2023-05-20T16:05:25.734Z,18.40
2023-05-20T16:11:59.464Z,18.20
2023-05-20T16:14:39.405Z,18.40
2023-05-20T16:17:07.614Z,18.00
2023-05-20T16:19:36.585Z,18.20
2023-05-20T16:22:05.950Z,18.30
2023-05-20T16:24:34.780Z,18.20
2023-05-20T16:27:11.536Z,18.30
2023-05-20T16:29:41.052Z,18.50
2023-05-20T16:32:09.393Z,18.60
2023-05-20T16:34:39.393Z,18.50
2023-05-20T16:37:07.618Z,18.30
2023-05-20T16:39:36.419Z,18.50
2023-05-20T16:42:07.415Z,18.30
2023-05-20T16:44:38.705Z,18.20
2023-05-20T16:47:36.627Z,18.20
2023-05-20T16:50:09.510Z,18.20
2023-05-20T16:52:41.933Z,17.90
2023-05-20T16:55:52.007Z,18.10
2023-05-20T16:58:36.842Z,18.00
2023-05-20T17:01:05.402Z,18.10
2023-05-20T17:03:40.494Z,18.00
2023-05-20T17:06:10.045Z,18.00
2023-05-20T17:08:38.326Z,17.90
2023-05-20T17:11:06.803Z,18.10
2023-05-20T17:13:42.156Z,17.80
2023-05-20T17:16:12.159Z,17.90
2023-05-20T17:18:46.060Z,17.90
2023-05-20T17:21:20.251Z,17.90
2023-05-20T17:23:50.131Z,17.80
2023-05-20T17:26:18.761Z,17.70
2023-05-20T17:28:46.929Z,17.70
2023-05-20T17:31:15.333Z,17.70
2023-05-20T17:33:45.265Z,17.60
2023-05-20T17:36:18.505Z,17.60
2023-05-20T17:38:48.118Z,17.60
2023-05-20T17:44:14.573Z,17.60
2023-05-20T17:46:49.292Z,17.50
2023-05-20T17:49:20.004Z,17.40
2023-05-20T17:51:52.055Z,17.40
2023-05-20T17:55:27.966Z,17.30
2023-05-20T17:58:25.255Z,17.20
2023-05-20T18:00:53.772Z,17.20
2023-05-20T18:03:25.341Z,17.20
2023-05-20T18:05:55.923Z,17.20
2023-05-20T18:08:27.852Z,17.10
2023-05-20T18:10:57.516Z,17.10
2023-05-20T18:13:26.705Z,17.00
2023-05-20T18:15:59.409Z,17.00
2023-05-20T18:18:31.000Z,17.10
2023-05-20T18:21:01.566Z,17.10
2023-05-20T18:23:29.658Z,17.10
2023-05-20T18:25:59.190Z,17.00
2023-05-20T18:28:28.733Z,17.00
2023-05-20T18:31:00.992Z,17.00
2023-05-20T18:33:35.082Z,17.00
2023-05-20T18:39:55.260Z,16.90
2023-05-20T18:42:45.646Z,16.90
2023-05-20T18:45:14.388Z,16.90
2023-05-20T18:47:43.720Z,16.80
2023-05-20T18:50:15.162Z,16.70
2023-05-20T18:52:48.616Z,16.70
2023-05-20T18:55:20.496Z,16.60
2023-05-20T18:57:49.796Z,16.50
2023-05-20T19:00:36.153Z,16.40
2023-05-20T19:03:22.334Z,16.40
2023-05-20T19:06:07.406Z,16.40
2023-05-20T19:08:42.422Z,16.30
2023-05-20T19:11:11.441Z,16.20
2023-05-20T19:13:50.385Z,16.10
2023-05-20T19:16:21.848Z,16.10
2023-05-20T19:18:53.568Z,16.00
2023-05-20T19:21:23.903Z,15.90
2023-05-20T19:24:15.159Z,15.90
2023-05-20T19:26:44.473Z,15.90
2023-05-20T19:29:15.075Z,15.90
2023-05-20T19:31:44.836Z,15.80
2023-05-20T19:34:18.808Z,15.80
2023-05-20T19:36:47.912Z,15.80
2023-05-20T19:39:18.190Z,15.80
2023-05-20T19:41:48.896Z,15.70
2023-05-20T19:44:18.973Z,15.70
2023-05-20T19:46:50.175Z,15.70
2023-05-20T19:49:19.849Z,15.60
2023-05-20T19:51:53.734Z,15.60
2023-05-20T19:54:23.255Z,15.60
2023-05-20T19:56:51.446Z,15.60
2023-05-20T19:59:20.184Z,15.50
2023-05-20T20:01:50.690Z,15.40
2023-05-20T20:04:21.532Z,15.40
2023-05-20T20:06:57.176Z,15.40
2023-05-20T20:09:29.335Z,15.40
2023-05-20T20:11:57.609Z,15.40
2023-05-20T20:14:30.472Z,15.30
2023-05-20T20:17:03.892Z,15.30
2023-05-20T20:19:34.153Z,15.30
2023-05-20T20:22:04.842Z,15.30
2023-05-20T20:24:39.493Z,15.30
2023-05-20T20:27:08.764Z,15.20
2023-05-20T20:29:37.143Z,15.20
2023-05-20T20:32:07.644Z,15.20
2023-05-20T20:34:46.458Z,15.10
2023-05-20T20:37:17.935Z,15.00
2023-05-20T20:39:50.041Z,14.90
2023-05-20T20:42:22.350Z,14.90
2023-05-20T20:44:58.427Z,14.80
2023-05-20T20:47:31.597Z,14.70
2023-05-20T20:50:00.071Z,14.70
2023-05-20T20:52:28.420Z,14.70
2023-05-20T20:54:59.996Z,14.70
2023-05-20T20:57:32.178Z,14.70
2023-05-20T21:00:10.860Z,14.70
2023-05-20T21:02:39.460Z,14.70
2023-05-20T21:05:08.449Z,14.70
2023-05-20T21:07:39.186Z,14.60
2023-05-20T21:10:16.271Z,14.70
2023-05-20T21:12:45.162Z,14.70
2023-05-20T21:15:16.543Z,14.80
2023-05-20T21:17:45.128Z,14.80
2023-05-20T21:20:15.509Z,14.80
2023-05-20T21:22:45.624Z,14.80
2023-05-20T21:25:19.163Z,14.70
2023-05-20T21:27:56.669Z,14.70
2023-05-20T21:30:25.565Z,14.60
2023-05-20T21:32:58.127Z,14.60
2023-05-20T21:35:29.653Z,14.50
2023-05-20T21:37:58.382Z,14.50
2023-05-20T21:40:29.561Z,14.50
2023-05-20T21:43:00.530Z,14.40
2023-05-20T21:45:47.430Z,14.40
2023-05-20T21:48:20.021Z,14.40
2023-05-20T21:50:49.616Z,14.40
2023-05-20T21:53:20.508Z,14.40
2023-05-20T21:55:51.585Z,14.40
2023-05-20T21:58:24.556Z,14.40
2023-05-20T22:00:53.482Z,14.30
2023-05-20T22:03:22.704Z,14.30
2023-05-20T22:09:08.280Z,14.20
2023-05-20T22:11:49.284Z,14.20
2023-05-20T22:14:20.290Z,14.20
2023-05-20T22:16:58.671Z,14.10
2023-05-20T22:19:28.259Z,14.10
2023-05-20T22:21:56.681Z,14.10
2023-05-20T22:24:36.779Z,14.10
2023-05-20T22:27:10.003Z,14.10
2023-05-20T22:29:39.922Z,14.00
2023-05-20T22:32:09.100Z,14.00
2023-05-20T22:34:40.335Z,14.00
2023-05-20T22:37:09.553Z,13.90
2023-05-20T22:39:41.003Z,13.90
2023-05-20T22:42:12.094Z,13.90
2023-05-20T22:44:43.717Z,13.90
2023-05-20T22:47:15.287Z,13.80
2023-05-20T22:49:45.014Z,13.80
2023-05-20T22:52:14.944Z,13.80
2023-05-20T22:54:44.994Z,13.80
2023-05-20T22:57:23.123Z,13.70
2023-05-20T22:59:54.119Z,13.70
2023-05-20T23:05:05.234Z,13.70
2023-05-20T23:07:33.388Z,13.60
2023-05-20T23:10:04.786Z,13.70
2023-05-20T23:12:37.021Z,13.70
2023-05-20T23:15:12.376Z,13.70
2023-05-20T23:17:52.219Z,13.50
2023-05-20T23:20:26.376Z,13.60
2023-05-20T23:23:05.657Z,13.60
2023-05-20T23:28:37.056Z,13.60
2023-05-20T23:31:12.083Z,13.60
2023-05-20T23:33:44.308Z,13.60
2023-05-20T23:39:51.214Z,13.50
2023-05-20T23:42:22.702Z,13.50
2023-05-20T23:44:55.511Z,13.50
2023-05-20T23:47:32.106Z,13.50
2023-05-20T23:50:05.439Z,13.50
2023-05-20T23:52:33.844Z,13.50
2023-05-20T23:55:02.098Z,13.50
2023-05-20T23:57:37.308Z,13.50
